Time;durP1;ratioP1;P1;durP2;ratioP2;P2;SDS_P1;SDS_P2;PMS_P1;PMS_P2;Temp;Humidity;BMP_temperature;BMP_pressure;BME280_temperature;BME280_humidity;BME280_pressure;Samples;Min_cycle;Max_cycle;Signal;HPM_P1;HPM_P2
2021/09/14 00:00:06;;;;;;;2.97;2.13;;;13.50;99.90;;;;;;5000730;28;20661;-62
2021/09/14 00:02:38;;;;;;;4.00;1.83;;;13.50;99.90;;;;;;4992305;28;20246;-61
2021/09/14 00:05:09;;;;;;;3.47;2.00;;;13.70;99.90;;;;;;4994825;28;20587;-61
2021/09/14 00:07:37;;;;;;;2.00;1.80;;;13.70;99.90;;;;;;4996167;28;20248;-62
2021/09/14 00:10:07;;;;;;;2.37;1.73;;;13.70;99.90;;;;;;4998752;28;20241;-61
2021/09/14 00:12:36;;;;;;;3.33;1.73;;;13.60;99.90;;;;;;4996275;28;20242;-61
2021/09/14 00:15:05;;;;;;;2.40;2.10;;;13.50;99.90;;;;;;4975460;28;20241;-61
2021/09/14 00:17:33;;;;;;;3.23;1.90;;;13.50;99.90;;;;;;4997371;28;20245;-62
2021/09/14 00:20:01;;;;;;;2.20;1.80;;;13.60;99.90;;;;;;5001220;28;20427;-61
2021/09/14 00:22:31;;;;;;;2.70;2.10;;;13.50;99.90;;;;;;5002249;28;20229;-63
2021/09/14 00:24:59;;;;;;;5.43;1.87;;;13.40;99.90;;;;;;5000116;28;20348;-63
2021/09/14 00:27:28;;;;;;;3.67;2.00;;;13.50;99.90;;;;;;5004850;28;20253;-61
2021/09/14 00:29:58;;;;;;;2.97;1.83;;;13.50;99.90;;;;;;4995302;28;20811;-62
2021/09/14 00:32:26;;;;;;;2.10;1.90;;;13.40;99.90;;;;;;4998295;28;20257;-62
2021/09/14 00:34:54;;;;;;;3.80;1.80;;;13.40;99.90;;;;;;4998790;28;20241;-62
2021/09/14 00:37:22;;;;;;;3.37;1.90;;;13.30;99.90;;;;;;4996916;28;20720;-62
2021/09/14 00:39:52;;;;;;;2.00;1.80;;;13.30;99.90;;;;;;4992202;28;20337;-62
2021/09/14 00:42:20;;;;;;;3.97;2.07;;;13.40;99.90;;;;;;4996300;28;20300;-61
2021/09/14 00:44:48;;;;;;;1.93;1.70;;;13.20;99.90;;;;;;4994864;28;20233;-61
2021/09/14 00:47:16;;;;;;;3.07;1.93;;;13.20;99.90;;;;;;4993750;28;20404;-61
2021/09/14 00:49:45;;;;;;;3.20;1.50;;;13.40;99.90;;;;;;4991846;28;20796;-61
2021/09/14 00:52:13;;;;;;;1.90;1.67;;;13.40;99.90;;;;;;5000543;28;20327;-63
2021/09/14 00:54:42;;;;;;;4.33;1.90;;;13.30;99.90;;;;;;4998030;28;20268;-62
2021/09/14 00:57:12;;;;;;;3.83;1.80;;;13.30;99.90;;;;;;4994458;28;20255;-61
2021/09/14 00:59:40;;;;;;;2.77;1.63;;;13.20;99.90;;;;;;4999573;28;20241;-61
2021/09/14 01:02:08;;;;;;;1.67;1.57;;;13.10;99.90;;;;;;4985794;28;20712;-62
2021/09/14 01:04:36;;;;;;;4.03;1.80;;;13.20;99.90;;;;;;5001392;28;20243;-62
2021/09/14 01:07:05;;;;;;;2.73;1.60;;;13.30;99.90;;;;;;4988734;28;20292;-62
2021/09/14 01:09:37;;;;;;;1.10;0.97;;;13.30;99.90;;;;;;4994646;28;21063;-62
2021/09/14 01:12:07;;;;;;;2.77;1.30;;;13.30;99.90;;;;;;4989858;28;20295;-61
2021/09/14 01:14:37;;;;;;;1.00;0.80;;;13.20;99.90;;;;;;4996278;28;20644;-63
2021/09/14 01:17:05;;;;;;;1.00;0.73;;;13.20;99.90;;;;;;4991253;28;20245;-61
2021/09/14 01:19:33;;;;;;;0.97;0.80;;;13.10;99.90;;;;;;4996148;28;20673;-61
2021/09/14 01:22:02;;;;;;;1.00;0.70;;;12.90;99.90;;;;;;5005125;28;20772;-62
2021/09/14 01:24:31;;;;;;;4.63;1.10;;;12.80;99.90;;;;;;5002333;28;20667;-63
2021/09/14 01:27:06;;;;;;;0.70;0.70;;;12.70;99.90;;;;;;4993644;28;20273;-61
2021/09/14 01:32:26;;;;;;;1.67;0.80;;;12.80;99.90;;;;;;4993358;28;20248;-62
2021/09/14 01:34:56;;;;;;;2.20;0.67;;;12.90;99.90;;;;;;5002548;28;20318;-61
2021/09/14 01:37:24;;;;;;;1.50;0.90;;;12.90;99.90;;;;;;4998975;28;20240;-62
2021/09/14 01:39:54;;;;;;;1.10;1.00;;;12.80;99.90;;;;;;4995913;28;20322;-62
2021/09/14 01:42:24;;;;;;;2.33;0.97;;;12.90;99.90;;;;;;5001695;28;20241;-62
2021/09/14 01:44:53;;;;;;;1.00;0.77;;;13.00;99.90;;;;;;4994492;28;20248;-62
2021/09/14 01:47:21;;;;;;;2.50;1.03;;;12.90;99.90;;;;;;4997437;28;20261;-62
2021/09/14 01:49:49;;;;;;;3.57;1.60;;;12.80;99.90;;;;;;4995312;28;20709;-61
2021/09/14 01:52:18;;;;;;;2.50;1.30;;;12.80;99.90;;;;;;4998932;28;20233;-62
2021/09/14 01:54:48;;;;;;;2.53;1.00;;;12.80;99.90;;;;;;5014661;28;20663;-61
2021/09/14 01:57:21;;;;;;;1.10;1.00;;;12.80;99.90;;;;;;5003890;28;20638;-61
2021/09/14 01:59:52;;;;;;;1.57;1.00;;;12.90;99.90;;;;;;4989800;28;20629;-62
2021/09/14 02:02:29;;;;;;;2.30;1.20;;;12.90;99.90;;;;;;4990613;28;20248;-62
2021/09/14 02:05:01;;;;;;;3.57;1.00;;;12.80;99.90;;;;;;5013521;28;20239;-62
2021/09/14 02:07:42;;;;;;;2.10;1.00;;;12.80;99.90;;;;;;4993182;28;20236;-63
2021/09/14 02:38:28;;;;;;;1.33;0.97;;;12.60;99.90;;;;;;4956651;28;20883;-62
2021/09/14 02:41:19;;;;;;;2.17;1.00;;;12.70;99.90;;;;;;4995356;28;20643;-61
2021/09/14 02:44:06;;;;;;;1.47;0.90;;;12.70;99.90;;;;;;4998281;28;20311;-61
2021/09/14 03:00:44;;;;;;;2.73;1.33;;;12.40;99.90;;;;;;4979374;28;20570;-62
2021/09/14 03:03:14;;;;;;;3.57;1.10;;;12.40;99.90;;;;;;4987582;28;20716;-62
2021/09/14 03:05:42;;;;;;;1.87;1.20;;;12.40;99.90;;;;;;5012740;28;20236;-61
2021/09/14 03:08:12;;;;;;;4.40;1.20;;;12.30;99.90;;;;;;4991029;28;20298;-61
2021/09/14 03:10:41;;;;;;;1.80;1.10;;;12.30;99.90;;;;;;4993351;28;20246;-62
2021/09/14 03:13:09;;;;;;;2.40;1.30;;;12.30;99.90;;;;;;4981225;28;20286;-62
2021/09/14 03:15:37;;;;;;;1.70;1.13;;;12.50;99.90;;;;;;4994559;28;20617;-62
2021/09/14 03:18:05;;;;;;;2.20;1.10;;;12.30;99.90;;;;;;4994536;28;20298;-62
2021/09/14 03:20:35;;;;;;;1.30;1.20;;;12.30;99.90;;;;;;4988205;28;20296;-61
2021/09/14 03:23:05;;;;;;;3.13;1.50;;;12.10;99.90;;;;;;4994158;28;20231;-62
2021/09/14 03:25:33;;;;;;;1.97;1.30;;;12.10;99.90;;;;;;5006616;28;20326;-61
2021/09/14 03:28:02;;;;;;;1.17;0.90;;;12.20;99.90;;;;;;4991794;28;20233;-61
2021/09/14 03:30:31;;;;;;;1.20;0.90;;;12.30;99.90;;;;;;5008025;28;20314;-61
2021/09/14 03:33:01;;;;;;;1.20;1.07;;;12.20;99.90;;;;;;4988606;28;20319;-62
2021/09/14 03:35:29;;;;;;;2.60;0.80;;;12.30;99.90;;;;;;4984675;28;20248;-62
2021/09/14 03:37:59;;;;;;;1.17;0.90;;;12.30;99.90;;;;;;4997664;28;20242;-62
2021/09/14 03:40:27;;;;;;;3.37;0.97;;;12.30;99.90;;;;;;4996941;28;20579;-62
2021/09/14 03:42:55;;;;;;;2.73;0.90;;;12.30;99.90;;;;;;4983189;28;20328;-62
2021/09/14 03:45:23;;;;;;;1.13;1.03;;;12.30;99.90;;;;;;4999383;28;20347;-62
2021/09/14 03:47:52;;;;;;;1.77;1.10;;;12.40;99.90;;;;;;4986971;28;20257;-62
2021/09/14 03:50:20;;;;;;;2.37;1.20;;;12.40;99.90;;;;;;4988640;28;21930;-62
2021/09/14 03:52:49;;;;;;;2.50;1.07;;;12.20;99.90;;;;;;4988069;28;20317;-61
2021/09/14 03:55:19;;;;;;;2.13;1.10;;;12.00;99.90;;;;;;5000013;28;20241;-63
2021/09/14 03:57:49;;;;;;;2.37;1.10;;;12.10;99.90;;;;;;4993324;28;20363;-62
2021/09/14 04:00:18;;;;;;;1.70;1.20;;;12.30;99.90;;;;;;5009852;28;20719;-61
2021/09/14 04:03:03;;;;;;;3.43;1.70;;;12.20;99.90;;;;;;4983948;28;20545;-61
2021/09/14 04:05:41;;;;;;;6.87;1.83;;;12.30;99.90;;;;;;5010975;28;20698;-61
2021/09/14 04:10:57;;;;;;;2.20;1.47;;;12.10;99.90;;;;;;4992943;28;20240;-61
2021/09/14 04:13:28;;;;;;;2.03;1.10;;;12.20;99.90;;;;;;4991299;28;20316;-62
2021/09/14 04:15:56;;;;;;;2.67;1.70;;;12.10;99.90;;;;;;4994628;28;20236;-62
2021/09/14 04:18:25;;;;;;;5.20;1.90;;;12.20;99.90;;;;;;4990520;28;20245;-63
2021/09/14 04:20:53;;;;;;;3.67;1.57;;;12.40;99.90;;;;;;4985278;28;20244;-62
2021/09/14 04:23:22;;;;;;;5.13;1.43;;;12.30;99.90;;;;;;4986878;28;20283;-61
2021/09/14 04:25:50;;;;;;;3.03;1.47;;;12.20;99.90;;;;;;4990985;28;20231;-62
2021/09/14 04:28:19;;;;;;;1.87;1.00;;;12.30;99.90;;;;;;4984450;28;20255;-62
2021/09/14 04:30:48;;;;;;;4.17;1.20;;;12.10;99.90;;;;;;4988874;28;20233;-61
2021/09/14 04:33:16;;;;;;;2.23;1.03;;;12.10;99.90;;;;;;4987568;28;20319;-62
2021/09/14 04:35:44;;;;;;;4.10;1.47;;;12.30;99.90;;;;;;5001888;28;20249;-61
2021/09/14 04:38:13;;;;;;;1.73;1.03;;;12.40;99.90;;;;;;4988141;28;20248;-61
2021/09/14 04:40:41;;;;;;;1.97;0.93;;;12.20;99.90;;;;;;4997001;28;20314;-61
2021/09/14 04:43:09;;;;;;;3.60;1.20;;;12.00;99.90;;;;;;4987790;28;20253;-61
2021/09/14 04:45:39;;;;;;;3.80;1.00;;;11.90;99.90;;;;;;5006929;28;20615;-62
2021/09/14 04:48:09;;;;;;;2.27;1.33;;;11.80;99.90;;;;;;5012769;28;20278;-61
2021/09/14 04:50:39;;;;;;;2.80;1.60;;;12.00;99.90;;;;;;5005311;28;20236;-61
2021/09/14 04:53:09;;;;;;;4.23;1.40;;;12.20;99.90;;;;;;4981436;28;20244;-62
2021/09/14 04:55:38;;;;;;;5.33;1.40;;;12.30;99.90;;;;;;5000510;28;20276;-62
2021/09/14 04:58:06;;;;;;;4.67;2.00;;;12.30;99.90;;;;;;4987431;28;20248;-62
2021/09/14 05:00:34;;;;;;;6.03;2.33;;;12.40;99.90;;;;;;4985476;28;20243;-62
2021/09/14 05:03:04;;;;;;;5.50;2.07;;;12.40;99.90;;;;;;4990901;28;20236;-61
2021/09/14 05:05:32;;;;;;;6.80;1.70;;;12.50;99.90;;;;;;4988351;28;20705;-62
2021/09/14 05:08:01;;;;;;;6.60;2.33;;;12.50;99.90;;;;;;4991427;28;20235;-61
2021/09/14 05:10:30;;;;;;;4.20;1.50;;;12.30;99.90;;;;;;4988107;28;20770;-62
2021/09/14 05:12:58;;;;;;;3.97;1.40;;;12.30;99.90;;;;;;4988948;28;20634;-62
2021/09/14 05:15:27;;;;;;;4.33;1.47;;;12.30;99.90;;;;;;4988912;28;20233;-62
2021/09/14 05:18:12;;;;;;;3.53;1.83;;;12.10;99.90;;;;;;4985778;28;20596;-62
2021/09/14 05:20:50;;;;;;;5.73;2.27;;;12.00;99.90;;;;;;5004764;28;20246;-61
2021/09/14 05:23:23;;;;;;;4.33;2.37;;;12.30;99.90;;;;;;5001229;28;20708;-62
2021/09/14 05:25:53;;;;;;;3.47;1.40;;;12.50;99.90;;;;;;4991937;28;20712;-63
2021/09/14 05:28:22;;;;;;;2.43;1.33;;;12.20;99.90;;;;;;4999863;28;20247;-61
2021/09/14 05:30:50;;;;;;;3.63;1.60;;;12.10;99.90;;;;;;5011582;28;20248;-62
2021/09/14 05:33:20;;;;;;;4.37;1.67;;;12.10;99.90;;;;;;4992897;28;20259;-63
2021/09/14 05:35:50;;;;;;;3.63;1.43;;;12.30;99.90;;;;;;4990349;28;20736;-61
2021/09/14 05:38:21;;;;;;;2.93;1.40;;;12.20;99.90;;;;;;4996639;28;20247;-62
2021/09/14 05:40:53;;;;;;;3.30;1.70;;;12.10;99.90;;;;;;5013598;28;20346;-61
2021/09/14 05:43:26;;;;;;;6.00;1.90;;;12.30;99.90;;;;;;4989019;28;20653;-62
2021/09/14 05:45:55;;;;;;;5.60;1.80;;;12.40;99.90;;;;;;4987552;28;20288;-62
2021/09/14 05:48:31;;;;;;;4.83;1.63;;;12.50;99.90;;;;;;4995823;28;20236;-63
2021/09/14 05:50:59;;;;;;;3.30;1.73;;;12.60;99.90;;;;;;4993068;28;20708;-62
2021/09/14 05:53:30;;;;;;;5.50;1.70;;;12.60;99.90;;;;;;4981738;28;20261;-61
2021/09/14 05:55:59;;;;;;;3.57;1.40;;;12.60;99.90;;;;;;5000823;28;20722;-61
2021/09/14 05:58:31;;;;;;;6.33;1.60;;;12.60;99.90;;;;;;4987442;28;20233;-62
2021/09/14 06:00:59;;;;;;;4.80;1.70;;;12.90;99.90;;;;;;4992644;28;20231;-62
2021/09/14 06:03:33;;;;;;;2.90;1.60;;;12.90;99.90;;;;;;4983861;28;20235;-62
2021/09/14 06:06:05;;;;;;;6.50;1.83;;;12.90;99.90;;;;;;4991513;28;20725;-62
2021/09/14 06:08:33;;;;;;;5.13;1.53;;;13.10;99.90;;;;;;4987374;28;20259;-62
2021/09/14 06:11:02;;;;;;;2.67;1.87;;;13.10;99.90;;;;;;4996953;28;20865;-61
2021/09/14 06:13:30;;;;;;;4.73;1.77;;;13.40;99.90;;;;;;4981132;28;20294;-61
2021/09/14 06:15:58;;;;;;;2.40;1.90;;;13.40;99.90;;;;;;5011579;28;20244;-62
2021/09/14 06:18:27;;;;;;;3.67;1.90;;;13.60;99.90;;;;;;4991803;28;20236;-61
2021/09/14 06:20:56;;;;;;;5.63;2.10;;;13.60;99.90;;;;;;5000208;28;20740;-61
2021/09/14 06:23:25;;;;;;;6.03;2.00;;;13.50;99.90;;;;;;4996873;28;20498;-61
2021/09/14 06:25:56;;;;;;;4.77;1.97;;;13.60;99.90;;;;;;4997704;28;20237;-62
2021/09/14 06:28:26;;;;;;;3.00;2.10;;;13.70;99.90;;;;;;5007744;28;20238;-63
2021/09/14 06:30:54;;;;;;;4.77;1.97;;;13.80;99.90;;;;;;4981776;28;20316;-62
2021/09/14 06:33:26;;;;;;;3.40;2.73;;;13.90;99.90;;;;;;5005922;28;20276;-61
2021/09/14 06:35:57;;;;;;;3.17;2.80;;;14.10;99.90;;;;;;5005247;28;20661;-62
2021/09/14 06:38:30;;;;;;;7.43;3.37;;;14.30;99.90;;;;;;4978232;28;20397;-61
2021/09/14 06:40:59;;;;;;;4.90;3.20;;;14.50;99.90;;;;;;4986624;28;20289;-62
2021/09/14 06:43:35;;;;;;;5.17;3.37;;;14.70;99.90;;;;;;4983345;28;20307;-62
2021/09/14 06:46:09;;;;;;;6.73;3.80;;;14.80;99.90;;;;;;5008002;28;20711;-61
2021/09/14 06:48:45;;;;;;;7.80;4.23;;;15.10;99.90;;;;;;4996871;28;20611;-62
2021/09/14 06:51:15;;;;;;;4.10;3.50;;;15.40;99.90;;;;;;4997624;28;20320;-62
2021/09/14 06:53:43;;;;;;;8.50;4.50;;;15.50;99.90;;;;;;4988480;28;20232;-62
2021/09/14 06:56:11;;;;;;;6.47;4.53;;;15.70;99.90;;;;;;4994157;28;20233;-62
2021/09/14 06:58:41;;;;;;;5.93;4.13;;;15.90;99.90;;;;;;5006439;28;20238;-62
2021/09/14 07:01:16;;;;;;;10.13;6.10;;;16.00;99.90;;;;;;4981628;28;20250;-62
2021/09/14 07:03:45;;;;;;;7.33;5.43;;;16.00;99.90;;;;;;4986532;28;20249;-61
2021/09/14 07:06:15;;;;;;;10.63;6.07;;;16.10;99.90;;;;;;4986826;28;20760;-62
2021/09/14 07:08:43;;;;;;;7.67;5.67;;;16.20;99.90;;;;;;4993027;28;20748;-62
2021/09/14 07:11:11;;;;;;;9.00;6.17;;;16.30;99.90;;;;;;4992069;28;20567;-63
2021/09/14 07:13:39;;;;;;;12.57;6.70;;;16.50;99.90;;;;;;4989098;28;20276;-62
2021/09/14 07:16:08;;;;;;;9.03;6.10;;;16.70;99.90;;;;;;5005596;28;20238;-62
2021/09/14 07:18:38;;;;;;;10.13;6.80;;;16.80;99.90;;;;;;4986202;28;20241;-62
2021/09/14 07:21:07;;;;;;;8.70;6.70;;;16.80;99.90;;;;;;4988908;28;20660;-61
2021/09/14 07:23:36;;;;;;;10.47;6.80;;;16.60;99.90;;;;;;4990937;28;20256;-62
2021/09/14 07:26:07;;;;;;;10.17;6.33;;;16.60;99.90;;;;;;4987466;28;20234;-62
2021/09/14 07:28:35;;;;;;;11.53;7.07;;;16.80;99.90;;;;;;4990929;28;20240;-62
2021/09/14 07:31:05;;;;;;;11.43;7.17;;;17.00;99.90;;;;;;4983759;28;20602;-63
2021/09/14 07:33:33;;;;;;;11.40;6.83;;;17.20;99.90;;;;;;4984987;28;20262;-62
2021/09/14 07:36:01;;;;;;;9.20;5.87;;;17.30;99.90;;;;;;4984331;28;20243;-63
2021/09/14 07:38:30;;;;;;;7.00;5.73;;;17.30;99.90;;;;;;4985146;28;20311;-61
2021/09/14 07:41:00;;;;;;;9.70;6.27;;;17.50;99.90;;;;;;4984404;28;20245;-61
2021/09/14 07:43:28;;;;;;;10.87;6.20;;;17.40;99.90;;;;;;4983445;28;20249;-61
2021/09/14 07:45:56;;;;;;;8.13;5.30;;;17.60;99.90;;;;;;4985565;28;20328;-61
2021/09/14 07:48:24;;;;;;;7.10;5.63;;;18.00;99.90;;;;;;4991585;28;20295;-62
2021/09/14 07:50:53;;;;;;;7.93;5.10;;;18.20;99.90;;;;;;4989536;28;20249;-62
2021/09/14 07:53:21;;;;;;;8.20;5.27;;;18.50;99.90;;;;;;4991671;28;20271;-62
2021/09/14 07:55:49;;;;;;;6.47;4.73;;;18.60;99.90;;;;;;4988825;28;20655;-62
2021/09/14 07:58:18;;;;;;;7.53;5.00;;;18.90;99.90;;;;;;4984813;28;20802;-63
2021/09/14 08:00:46;;;;;;;7.07;4.53;;;19.10;99.90;;;;;;4984847;28;20238;-62
2021/09/14 08:03:15;;;;;;;6.87;4.20;;;19.30;99.90;;;;;;4982121;28;20244;-62
2021/09/14 08:05:43;;;;;;;6.80;4.43;;;19.40;99.90;;;;;;4985678;28;20761;-62
2021/09/14 08:08:11;;;;;;;6.73;4.43;;;19.40;99.90;;;;;;4984205;28;20331;-61
2021/09/14 08:10:39;;;;;;;6.40;4.17;;;19.50;99.90;;;;;;4985429;28;20299;-62
2021/09/14 08:13:09;;;;;;;6.57;4.50;;;19.80;99.90;;;;;;4983547;28;20260;-61
2021/09/14 08:15:39;;;;;;;6.07;4.03;;;20.00;99.90;;;;;;5000534;28;20236;-62
2021/09/14 08:18:07;;;;;;;4.53;4.00;;;20.10;99.90;;;;;;4983520;28;20260;-62
2021/09/14 08:20:35;;;;;;;8.30;4.27;;;20.10;99.90;;;;;;4983413;28;20240;-62
2021/09/14 08:23:03;;;;;;;5.90;3.93;;;20.30;99.90;;;;;;4982477;28;20243;-63
2021/09/14 08:25:31;;;;;;;5.83;4.40;;;20.40;99.90;;;;;;4986461;28;20236;-61
2021/09/14 08:27:59;;;;;;;8.30;4.03;;;20.40;99.90;;;;;;4984225;28;20239;-62
2021/09/14 08:30:27;;;;;;;9.07;5.50;;;20.70;99.90;;;;;;4987089;28;20233;-63
2021/09/14 08:32:57;;;;;;;7.93;4.87;;;20.90;99.90;;;;;;4989079;28;20242;-61
2021/09/14 08:35:25;;;;;;;6.03;3.70;;;21.10;99.90;;;;;;4992112;28;20332;-62
2021/09/14 08:37:54;;;;;;;9.33;3.70;;;21.20;99.90;;;;;;4992806;28;20248;-61
2021/09/14 08:40:22;;;;;;;6.83;4.00;;;21.40;99.90;;;;;;4991999;28;20323;-62
2021/09/14 08:42:51;;;;;;;6.10;3.40;;;21.50;99.90;;;;;;4988961;28;20661;-62
2021/09/14 08:45:20;;;;;;;6.97;3.67;;;21.70;99.90;;;;;;5002862;28;20411;-61
2021/09/14 08:47:48;;;;;;;7.23;3.90;;;21.70;99.90;;;;;;4987630;28;20691;-62
2021/09/14 08:50:20;;;;;;;6.07;3.50;;;21.70;99.90;;;;;;4988300;28;20241;-62
2021/09/14 08:52:48;;;;;;;5.33;3.50;;;21.70;99.90;;;;;;4991621;28;20244;-62
2021/09/14 08:55:16;;;;;;;6.33;3.70;;;21.90;99.90;;;;;;4991120;28;20717;-61
2021/09/14 08:57:50;;;;;;;6.53;3.43;;;22.20;99.90;;;;;;4990833;28;20328;-61
2021/09/14 09:00:30;;;;;;;4.83;3.53;;;22.40;99.90;;;;;;4986690;28;20244;-62
2021/09/14 09:02:59;;;;;;;6.17;3.73;;;22.60;99.90;;;;;;4992478;28;20247;-62
2021/09/14 09:05:33;;;;;;;5.53;3.40;;;22.50;99.90;;;;;;4987055;28;20237;-61
2021/09/14 09:08:02;;;;;;;6.70;3.47;;;22.70;99.90;;;;;;4989509;28;20254;-61
2021/09/14 09:10:33;;;;;;;7.27;4.30;;;22.70;99.90;;;;;;4988038;28;20257;-62
2021/09/14 09:13:04;;;;;;;7.87;4.33;;;22.50;99.90;;;;;;4990140;28;20279;-62
2021/09/14 09:15:34;;;;;;;6.27;3.70;;;22.10;99.90;;;;;;4984522;28;20333;-62
2021/09/14 09:18:04;;;;;;;6.00;3.60;;;22.50;99.90;;;;;;4989328;28;20253;-63
2021/09/14 09:20:34;;;;;;;8.30;4.10;;;22.80;99.90;;;;;;4987281;28;20252;-63
2021/09/14 09:23:05;;;;;;;5.40;4.10;;;22.90;99.90;;;;;;4987118;28;20918;-63
2021/09/14 09:25:34;;;;;;;7.27;4.10;;;23.10;99.90;;;;;;4989727;28;20242;-61
2021/09/14 09:28:08;;;;;;;8.00;3.90;;;23.20;99.90;;;;;;4989896;28;20265;-63
2021/09/14 09:30:38;;;;;;;5.07;3.70;;;23.40;99.90;;;;;;4981551;28;20403;-62
2021/09/14 09:33:08;;;;;;;4.37;3.03;;;23.40;99.90;;;;;;4985329;28;20250;-61
2021/09/14 09:36:00;;;;;;;6.07;3.13;;;23.30;99.90;;;;;;4984322;28;20325;-61
2021/09/14 09:38:29;;;;;;;6.07;3.00;;;23.50;99.90;;;;;;4985128;28;20324;-61
2021/09/14 09:40:58;;;;;;;6.23;3.10;;;23.60;99.90;;;;;;4984189;28;20555;-63
2021/09/14 09:43:29;;;;;;;9.20;3.70;;;23.50;99.90;;;;;;4983033;28;20300;-61
2021/09/14 09:46:07;;;;;;;6.30;3.20;;;23.20;99.90;;;;;;4983702;28;20325;-63
2021/09/14 09:48:36;;;;;;;6.73;3.33;;;23.50;99.90;;;;;;4981837;28;20754;-61
2021/09/14 09:51:06;;;;;;;4.43;3.23;;;23.60;99.90;;;;;;4982134;28;20603;-61
2021/09/14 09:53:35;;;;;;;4.57;3.07;;;23.90;99.90;;;;;;4984270;28;20246;-61
2021/09/14 09:56:15;;;;;;;4.22;3.08;;;23.90;99.90;;;;;;2346615;28;10024399;-62
2021/09/14 09:58:45;;;;;;;4.97;3.80;;;24.00;99.90;;;;;;3946276;28;10001204;-63
2021/09/14 10:01:15;;;;;;;5.80;3.37;;;23.90;99.90;;;;;;4962886;28;20262;-61
2021/09/14 10:03:53;;;;;;;5.13;3.33;;;24.10;99.90;;;;;;4967429;28;20247;-62
2021/09/14 10:06:28;;;;;;;4.70;3.07;;;24.30;99.90;;;;;;4968657;28;20239;-61
2021/09/14 10:08:57;;;;;;;4.60;3.33;;;24.50;99.90;;;;;;4965378;28;20247;-62
2021/09/14 10:11:27;;;;;;;8.30;4.10;;;24.60;99.90;;;;;;4964992;28;20235;-62
2021/09/14 10:14:06;;;;;;;4.67;3.20;;;24.60;99.90;;;;;;4958181;28;20263;-61
2021/09/14 10:16:44;;;;;;;6.03;3.10;;;24.60;99.90;;;;;;4977179;28;20251;-62
2021/09/14 10:19:14;;;;;;;4.93;3.30;;;24.60;99.90;;;;;;4995080;28;20261;-62
2021/09/14 10:21:46;;;;;;;6.27;3.20;;;24.60;99.90;;;;;;4982398;28;20248;-62
2021/09/14 10:24:21;;;;;;;4.63;3.40;;;24.70;99.90;;;;;;4979957;28;20242;-62
2021/09/14 10:26:50;;;;;;;7.17;3.30;;;24.30;99.90;;;;;;4977744;28;20794;-61
2021/09/14 10:29:20;;;;;;;3.20;2.83;;;24.40;99.90;;;;;;4975765;28;20234;-61
2021/09/14 10:31:59;;;;;;;4.87;3.00;;;24.70;99.90;;;;;;4981815;28;20244;-62
2021/09/14 10:34:28;;;;;;;4.07;2.70;;;24.70;99.90;;;;;;4986824;28;20235;-62
2021/09/14 10:37:03;;;;;;;3.97;2.90;;;24.70;99.90;;;;;;4976062;28;20347;-61
2021/09/14 10:39:35;;;;;;;4.33;3.10;;;24.70;99.90;;;;;;4985494;28;20331;-62
2021/09/14 10:42:15;;;;;;;6.13;2.80;;;24.70;99.90;;;;;;4987756;28;20947;-62
2021/09/14 10:44:44;;;;;;;7.30;2.80;;;24.70;99.90;;;;;;4988332;28;20323;-62
2021/09/14 10:47:13;;;;;;;4.07;2.60;;;24.60;99.90;;;;;;4983850;28;20600;-61
2021/09/14 10:49:46;;;;;;;8.00;3.10;;;24.50;99.90;;;;;;4993355;28;20353;-62
2021/09/14 10:52:17;;;;;;;3.93;3.13;;;24.10;99.90;;;;;;4983683;28;20688;-61
2021/09/14 10:54:51;;;;;;;5.80;3.00;;;23.90;99.90;;;;;;4984890;28;20246;-62
2021/09/14 10:57:22;;;;;;;3.87;2.93;;;24.10;99.90;;;;;;4986326;28;20259;-61
2021/09/14 10:59:51;;;;;;;4.30;2.70;;;24.40;99.90;;;;;;4987466;28;20236;-62
2021/09/14 11:02:24;;;;;;;4.07;3.03;;;24.00;99.90;;;;;;4982684;28;20298;-63
2021/09/14 11:04:55;;;;;;;3.27;2.50;;;23.70;99.90;;;;;;4979402;28;20753;-62
2021/09/14 11:07:24;;;;;;;6.27;2.93;;;23.40;99.90;;;;;;4985061;28;20243;-62
2021/09/14 11:09:54;;;;;;;3.33;3.03;;;23.30;99.90;;;;;;4985390;28;20838;-62
2021/09/14 11:12:23;;;;;;;5.53;3.17;;;23.40;99.90;;;;;;4976473;28;20609;-62
2021/09/14 11:14:52;;;;;;;5.13;3.03;;;23.40;99.90;;;;;;4979862;28;20237;-62
2021/09/14 11:17:28;;;;;;;4.37;2.97;;;23.40;99.90;;;;;;4983508;28;20236;-62
2021/09/14 11:20:09;;;;;;;3.57;3.07;;;23.50;99.90;;;;;;4976967;28;20278;-61
2021/09/14 11:22:41;;;;;;;4.63;3.13;;;23.50;99.90;;;;;;4983958;28;20318;-63
2021/09/14 11:25:14;;;;;;;5.40;3.00;;;23.60;99.90;;;;;;4977329;28;20263;-62
2021/09/14 11:27:53;;;;;;;4.90;3.10;;;23.70;99.90;;;;;;4978914;28;20287;-62
2021/09/14 11:30:21;;;;;;;4.90;2.80;;;23.60;99.90;;;;;;4982953;28;20238;-61
2021/09/14 11:32:50;;;;;;;5.17;2.83;;;24.30;99.90;;;;;;4977711;28;20242;-62
2021/09/14 11:35:19;;;;;;;3.97;2.63;;;24.30;99.90;;;;;;4982066;28;20266;-62
2021/09/14 11:37:59;;;;;;;2.60;2.40;;;24.50;99.90;;;;;;4977758;28;20253;-62
2021/09/14 11:40:29;;;;;;;4.43;2.60;;;24.60;99.90;;;;;;4980395;28;20326;-61
2021/09/14 11:42:59;;;;;;;3.60;2.27;;;24.70;99.90;;;;;;4981536;28;20263;-62
2021/09/14 11:45:29;;;;;;;5.10;2.73;;;25.20;99.90;;;;;;4982339;28;20265;-62
2021/09/14 11:47:58;;;;;;;2.57;2.37;;;24.90;99.90;;;;;;4986082;28;20238;-63
2021/09/14 11:50:38;;;;;;;3.67;2.80;;;24.60;99.90;;;;;;4984010;28;20643;-62
2021/09/14 11:53:11;;;;;;;3.47;3.10;;;24.50;99.90;;;;;;4983115;28;20254;-62
2021/09/14 11:55:41;;;;;;;3.37;3.00;;;24.20;99.90;;;;;;4983763;28;20249;-62
2021/09/14 11:58:10;;;;;;;3.47;3.00;;;24.20;99.90;;;;;;4982039;28;20263;-61
2021/09/14 12:00:39;;;;;;;3.27;2.77;;;24.10;99.90;;;;;;4981178;28;20772;-62
2021/09/14 12:03:08;;;;;;;4.97;3.00;;;24.10;99.90;;;;;;4981246;28;20718;-62
2021/09/14 12:05:37;;;;;;;3.93;2.93;;;23.80;99.90;;;;;;4986658;28;20335;-62
2021/09/14 12:08:12;;;;;;;5.37;2.87;;;23.80;99.90;;;;;;4983357;28;20235;-63
2021/09/14 12:10:46;;;;;;;3.47;3.03;;;24.10;99.90;;;;;;4983220;28;20242;-62
2021/09/14 12:13:17;;;;;;;3.77;2.97;;;23.70;99.90;;;;;;4977597;28;20647;-63
2021/09/14 12:15:47;;;;;;;3.33;2.87;;;23.70;99.90;;;;;;4979539;28;20606;-62
2021/09/14 12:18:16;;;;;;;9.03;3.33;;;23.80;99.90;;;;;;4977463;28;21112;-62
2021/09/14 12:20:44;;;;;;;5.57;3.23;;;23.50;99.90;;;;;;4981871;28;20243;-62
2021/09/14 12:23:15;;;;;;;5.07;3.17;;;23.40;99.90;;;;;;4979115;28;20255;-61
2021/09/14 12:25:44;;;;;;;4.90;3.27;;;23.30;99.90;;;;;;4980417;28;20322;-62
2021/09/14 12:28:12;;;;;;;5.77;3.40;;;23.20;99.90;;;;;;4978343;28;20233;-62
2021/09/14 12:30:40;;;;;;;4.67;3.00;;;23.20;99.90;;;;;;4977867;28;20225;-62
2021/09/14 12:33:08;;;;;;;3.47;2.70;;;23.40;99.90;;;;;;4978621;28;20741;-62
2021/09/14 12:35:36;;;;;;;5.80;3.47;;;23.60;99.90;;;;;;4981100;28;20812;-61
2021/09/14 12:38:08;;;;;;;4.77;3.33;;;23.60;99.90;;;;;;4976390;28;20279;-63
2021/09/14 12:40:38;;;;;;;4.40;3.60;;;23.70;99.90;;;;;;4980618;28;20251;-62
2021/09/14 12:43:06;;;;;;;4.43;3.33;;;23.60;99.90;;;;;;4980446;28;20292;-63
2021/09/14 12:45:34;;;;;;;3.37;3.03;;;23.80;99.90;;;;;;4980306;28;20618;-62
2021/09/14 12:48:03;;;;;;;6.77;3.30;;;23.70;99.90;;;;;;4996003;28;20243;-62
2021/09/14 12:50:31;;;;;;;12.20;3.33;;;23.30;99.90;;;;;;4982328;28;20790;-61
2021/09/14 12:52:59;;;;;;;6.53;3.53;;;23.40;99.90;;;;;;4990474;28;20335;-62
2021/09/14 12:55:27;;;;;;;7.93;3.77;;;23.30;99.90;;;;;;4980765;28;20248;-62
2021/09/14 12:57:57;;;;;;;6.37;3.30;;;23.20;99.90;;;;;;4988684;28;20737;-62
2021/09/14 13:00:25;;;;;;;4.13;3.30;;;23.30;99.90;;;;;;4993758;28;20806;-62
2021/09/14 13:02:53;;;;;;;3.83;3.20;;;23.20;99.90;;;;;;4987364;28;20709;-62
2021/09/14 13:05:21;;;;;;;4.40;3.37;;;23.30;99.90;;;;;;4987287;28;20243;-62
2021/09/14 13:07:50;;;;;;;5.30;3.33;;;23.40;99.90;;;;;;4985171;28;20241;-62
2021/09/14 13:10:29;;;;;;;4.00;3.60;;;23.20;99.90;;;;;;4986468;28;20245;-64
2021/09/14 13:18:31;;;;;;;4.03;3.40;;;23.50;99.90;;;;;;4989547;28;20677;-63
2021/09/14 13:20:59;;;;;;;3.87;3.50;;;23.30;99.90;;;;;;4990929;28;20257;-63
2021/09/14 13:23:27;;;;;;;4.60;3.40;;;23.30;99.90;;;;;;4986375;28;20337;-62
2021/09/14 13:25:55;;;;;;;6.03;3.47;;;23.20;99.90;;;;;;4990683;28;20253;-63
2021/09/14 13:28:25;;;;;;;4.20;3.40;;;23.10;99.90;;;;;;4979298;28;20254;-62
2021/09/14 13:30:54;;;;;;;5.13;3.30;;;23.20;99.90;;;;;;4988134;28;20249;-62
2021/09/14 13:33:22;;;;;;;4.47;3.17;;;23.20;99.90;;;;;;4984080;28;20242;-62
2021/09/14 13:35:50;;;;;;;4.63;3.30;;;23.20;99.90;;;;;;4985029;28;20247;-61
2021/09/14 13:38:18;;;;;;;3.50;3.07;;;23.10;99.90;;;;;;4993004;28;20734;-62
2021/09/14 13:40:47;;;;;;;3.70;3.30;;;23.20;99.90;;;;;;4988596;28;20248;-62
2021/09/14 13:43:32;;;;;;;5.27;4.07;;;23.20;99.90;;;;;;4989593;28;20826;-62
2021/09/14 13:46:11;;;;;;;3.83;3.50;;;23.20;99.90;;;;;;4988658;28;20234;-61
2021/09/14 13:48:41;;;;;;;3.10;2.80;;;23.00;99.90;;;;;;4983936;28;20245;-62
2021/09/14 13:51:11;;;;;;;4.37;3.33;;;23.00;99.90;;;;;;4996530;28;20237;-63
2021/09/14 13:53:42;;;;;;;3.70;3.30;;;23.00;99.90;;;;;;4993329;28;20304;-61